sensor_id;sensor_type;location;lat;lon;timestamp;temperature;humidity
17671;DHT22;8954;48.694;8.940;2022-09-01T00:01:28;13.10;99.90
17671;DHT22;8954;48.694;8.940;2022-09-01T00:03:56;13.10;99.90
17671;DHT22;8954;48.694;8.940;2022-09-01T00:06:24;13.20;99.90
17671;DHT22;8954;48.694;8.940;2022-09-01T00:08:51;13.20;99.90
17671;DHT22;8954;48.694;8.940;2022-09-01T00:11:17;13.30;99.90
17671;DHT22;8954;48.694;8.940;2022-09-01T00:13:43;13.30;99.90
17671;DHT22;8954;48.694;8.940;2022-09-01T00:16:09;13.40;99.90
17671;DHT22;8954;48.694;8.940;2022-09-01T00:18:39;13.40;99.90
17671;DHT22;8954;48.694;8.940;2022-09-01T00:21:10;13.40;99.90
17671;DHT22;8954;48.694;8.940;2022-09-01T00:23:36;13.50;99.90
17671;DHT22;8954;48.694;8.940;2022-09-01T00:26:02;13.50;99.90
17671;DHT22;8954;48.694;8.940;2022-09-01T00:28:28;13.60;99.90
17671;DHT22;8954;48.694;8.940;2022-09-01T00:30:54;13.60;99.90
17671;DHT22;8954;48.694;8.940;2022-09-01T00:33:19;13.60;99.90
17671;DHT22;8954;48.694;8.940;2022-09-01T00:35:45;13.70;99.90
17671;DHT22;8954;48.694;8.940;2022-09-01T00:38:11;13.60;99.90
17671;DHT22;8954;48.694;8.940;2022-09-01T00:40:38;13.70;99.90
17671;DHT22;8954;48.694;8.940;2022-09-01T00:45:56;13.60;99.90
17671;DHT22;8954;48.694;8.940;2022-09-01T00:48:22;13.60;99.90
17671;DHT22;8954;48.694;8.940;2022-09-01T00:50:49;13.60;99.90
17671;DHT22;8954;48.694;8.940;2022-09-01T00:53:15;13.60;99.90
17671;DHT22;8954;48.694;8.940;2022-09-01T00:55:40;13.60;99.90
17671;DHT22;8954;48.694;8.940;2022-09-01T00:58:06;13.60;99.90
17671;DHT22;8954;48.694;8.940;2022-09-01T01:00:35;13.60;99.90
17671;DHT22;8954;48.694;8.940;2022-09-01T01:03:06;13.60;99.90
17671;DHT22;8954;48.694;8.940;2022-09-01T01:05:37;13.60;99.90
17671;DHT22;8954;48.694;8.940;2022-09-01T01:08:05;13.70;99.90
17671;DHT22;8954;48.694;8.940;2022-09-01T01:10:38;13.60;99.90
17671;DHT22;8954;48.694;8.940;2022-09-01T01:13:15;13.60;99.90
17671;DHT22;8954;48.694;8.940;2022-09-01T01:15:42;13.60;99.90
17671;DHT22;8954;48.694;8.940;2022-09-01T01:18:15;13.60;99.90
17671;DHT22;8954;48.694;8.940;2022-09-01T01:20:41;13.60;99.90
17671;DHT22;8954;48.694;8.940;2022-09-01T01:23:39;13.60;99.90
17671;DHT22;8954;48.694;8.940;2022-09-01T01:26:09;13.60;99.90
17671;DHT22;8954;48.694;8.940;2022-09-01T01:28:38;13.60;99.90
17671;DHT22;8954;48.694;8.940;2022-09-01T01:31:10;13.50;99.90
17671;DHT22;8954;48.694;8.940;2022-09-01T01:33:47;13.50;99.90
17671;DHT22;8954;48.694;8.940;2022-09-01T01:36:24;13.50;99.90
17671;DHT22;8954;48.694;8.940;2022-09-01T01:38:58;13.50;99.90
17671;DHT22;8954;48.694;8.940;2022-09-01T01:41:27;13.50;99.90
17671;DHT22;8954;48.694;8.940;2022-09-01T01:43:55;13.40;99.90
17671;DHT22;8954;48.694;8.940;2022-09-01T01:46:21;13.40;99.90
17671;DHT22;8954;48.694;8.940;2022-09-01T01:48:48;13.40;99.90
17671;DHT22;8954;48.694;8.940;2022-09-01T01:51:17;13.30;99.90
17671;DHT22;8954;48.694;8.940;2022-09-01T01:53:46;13.30;99.90
17671;DHT22;8954;48.694;8.940;2022-09-01T01:56:12;13.20;99.90
17671;DHT22;8954;48.694;8.940;2022-09-01T01:58:38;13.20;99.90
17671;DHT22;8954;48.694;8.940;2022-09-01T02:01:05;13.10;99.90
17671;DHT22;8954;48.694;8.940;2022-09-01T02:03:35;13.00;99.90
17671;DHT22;8954;48.694;8.940;2022-09-01T02:06:05;12.90;99.90
17671;DHT22;8954;48.694;8.940;2022-09-01T02:08:33;12.90;99.90
17671;DHT22;8954;48.694;8.940;2022-09-01T02:11:01;12.90;99.90
17671;DHT22;8954;48.694;8.940;2022-09-01T02:13:27;12.80;99.90
17671;DHT22;8954;48.694;8.940;2022-09-01T02:16:02;12.80;99.90
17671;DHT22;8954;48.694;8.940;2022-09-01T02:18:36;12.70;99.90
17671;DHT22;8954;48.694;8.940;2022-09-01T02:21:04;12.60;99.90
17671;DHT22;8954;48.694;8.940;2022-09-01T02:23:34;12.50;99.90
17671;DHT22;8954;48.694;8.940;2022-09-01T02:26:00;12.50;99.90
17671;DHT22;8954;48.694;8.940;2022-09-01T02:28:27;12.40;99.90
17671;DHT22;8954;48.694;8.940;2022-09-01T02:30:55;12.50;99.90
17671;DHT22;8954;48.694;8.940;2022-09-01T02:33:23;12.50;99.90
17671;DHT22;8954;48.694;8.940;2022-09-01T02:35:53;12.40;99.90
17671;DHT22;8954;48.694;8.940;2022-09-01T02:38:19;12.40;99.90
17671;DHT22;8954;48.694;8.940;2022-09-01T02:40:47;12.40;99.90
17671;DHT22;8954;48.694;8.940;2022-09-01T02:43:14;12.30;99.90
17671;DHT22;8954;48.694;8.940;2022-09-01T02:45:44;12.30;99.90
17671;DHT22;8954;48.694;8.940;2022-09-01T02:48:11;12.20;99.90
17671;DHT22;8954;48.694;8.940;2022-09-01T02:50:38;12.20;99.90
17671;DHT22;8954;48.694;8.940;2022-09-01T02:53:05;12.10;99.90
17671;DHT22;8954;48.694;8.940;2022-09-01T02:55:35;12.10;99.90
17671;DHT22;8954;48.694;8.940;2022-09-01T02:58:01;12.10;99.90
17671;DHT22;8954;48.694;8.940;2022-09-01T03:00:27;12.00;99.90
17671;DHT22;8954;48.694;8.940;2022-09-01T03:02:59;12.00;99.90
17671;DHT22;8954;48.694;8.940;2022-09-01T03:05:27;11.90;99.90
17671;DHT22;8954;48.694;8.940;2022-09-01T03:07:58;11.90;99.90
17671;DHT22;8954;48.694;8.940;2022-09-01T03:10:33;11.80;99.90
17671;DHT22;8954;48.694;8.940;2022-09-01T03:13:04;11.80;99.90
17671;DHT22;8954;48.694;8.940;2022-09-01T03:15:31;11.80;99.90
17671;DHT22;8954;48.694;8.940;2022-09-01T03:17:58;11.70;99.90
17671;DHT22;8954;48.694;8.940;2022-09-01T03:20:24;11.70;99.90
17671;DHT22;8954;48.694;8.940;2022-09-01T03:22:49;11.70;99.90
17671;DHT22;8954;48.694;8.940;2022-09-01T03:25:16;11.70;99.90
17671;DHT22;8954;48.694;8.940;2022-09-01T03:27:44;11.70;99.90
17671;DHT22;8954;48.694;8.940;2022-09-01T03:30:10;11.70;99.90
17671;DHT22;8954;48.694;8.940;2022-09-01T03:32:37;11.60;99.90
17671;DHT22;8954;48.694;8.940;2022-09-01T03:35:03;11.60;99.90
17671;DHT22;8954;48.694;8.940;2022-09-01T03:37:28;11.60;99.90
17671;DHT22;8954;48.694;8.940;2022-09-01T03:39:54;11.60;99.90
17671;DHT22;8954;48.694;8.940;2022-09-01T03:44:51;11.40;99.90
17671;DHT22;8954;48.694;8.940;2022-09-01T03:47:18;11.40;99.90
17671;DHT22;8954;48.694;8.940;2022-09-01T03:49:45;11.50;99.90
17671;DHT22;8954;48.694;8.940;2022-09-01T03:52:14;11.40;99.90
17671;DHT22;8954;48.694;8.940;2022-09-01T03:54:40;11.40;99.90
17671;DHT22;8954;48.694;8.940;2022-09-01T03:57:05;11.30;99.90
17671;DHT22;8954;48.694;8.940;2022-09-01T03:59:34;11.30;99.90
17671;DHT22;8954;48.694;8.940;2022-09-01T04:41:46;11.00;99.90
17671;DHT22;8954;48.694;8.940;2022-09-01T04:44:13;11.10;99.90
17671;DHT22;8954;48.694;8.940;2022-09-01T04:46:42;11.20;99.90
17671;DHT22;8954;48.694;8.940;2022-09-01T04:49:11;11.30;99.90
17671;DHT22;8954;48.694;8.940;2022-09-01T04:51:42;11.30;99.90
17671;DHT22;8954;48.694;8.940;2022-09-01T04:54:08;11.40;99.90
17671;DHT22;8954;48.694;8.940;2022-09-01T04:56:37;11.60;99.90
17671;DHT22;8954;48.694;8.940;2022-09-01T04:59:03;11.60;99.90
17671;DHT22;8954;48.694;8.940;2022-09-01T05:04:11;11.80;99.90
17671;DHT22;8954;48.694;8.940;2022-09-01T05:06:41;11.90;99.90
17671;DHT22;8954;48.694;8.940;2022-09-01T05:09:11;12.10;99.90
17671;DHT22;8954;48.694;8.940;2022-09-01T05:11:38;12.20;99.90
17671;DHT22;8954;48.694;8.940;2022-09-01T05:14:05;12.30;99.90
17671;DHT22;8954;48.694;8.940;2022-09-01T05:16:32;12.30;99.90
17671;DHT22;8954;48.694;8.940;2022-09-01T05:18:59;12.40;99.90
17671;DHT22;8954;48.694;8.940;2022-09-01T05:21:26;12.50;99.90
17671;DHT22;8954;48.694;8.940;2022-09-01T05:23:55;12.60;99.90
17671;DHT22;8954;48.694;8.940;2022-09-01T05:26:27;12.70;99.90
17671;DHT22;8954;48.694;8.940;2022-09-01T05:29:00;12.70;99.90
17671;DHT22;8954;48.694;8.940;2022-09-01T05:31:28;12.60;99.90
17671;DHT22;8954;48.694;8.940;2022-09-01T05:33:59;12.70;99.90
17671;DHT22;8954;48.694;8.940;2022-09-01T05:36:26;12.60;99.90
17671;DHT22;8954;48.694;8.940;2022-09-01T05:38:53;12.60;99.90
17671;DHT22;8954;48.694;8.940;2022-09-01T05:41:19;12.60;99.90
17671;DHT22;8954;48.694;8.940;2022-09-01T05:43:47;12.70;99.90
17671;DHT22;8954;48.694;8.940;2022-09-01T05:46:25;12.80;99.90
17671;DHT22;8954;48.694;8.940;2022-09-01T05:48:53;12.90;99.90
17671;DHT22;8954;48.694;8.940;2022-09-01T05:51:22;12.90;99.90
17671;DHT22;8954;48.694;8.940;2022-09-01T05:53:51;13.00;99.90
17671;DHT22;8954;48.694;8.940;2022-09-01T05:56:19;13.10;99.90
17671;DHT22;8954;48.694;8.940;2022-09-01T05:58:46;13.30;99.90
17671;DHT22;8954;48.694;8.940;2022-09-01T06:01:23;13.40;99.90
17671;DHT22;8954;48.694;8.940;2022-09-01T06:03:50;13.60;99.90
17671;DHT22;8954;48.694;8.940;2022-09-01T06:06:23;13.70;99.90
17671;DHT22;8954;48.694;8.940;2022-09-01T06:08:50;13.90;99.90
17671;DHT22;8954;48.694;8.940;2022-09-01T06:11:17;14.00;99.90
17671;DHT22;8954;48.694;8.940;2022-09-01T06:13:44;14.10;99.90
17671;DHT22;8954;48.694;8.940;2022-09-01T06:16:13;14.20;99.90
17671;DHT22;8954;48.694;8.940;2022-09-01T06:18:39;14.30;99.90
17671;DHT22;8954;48.694;8.940;2022-09-01T06:21:09;14.30;99.90
17671;DHT22;8954;48.694;8.940;2022-09-01T06:23:40;14.40;99.90
17671;DHT22;8954;48.694;8.940;2022-09-01T06:26:17;14.60;99.90
17671;DHT22;8954;48.694;8.940;2022-09-01T06:28:44;14.80;99.90
17671;DHT22;8954;48.694;8.940;2022-09-01T06:31:09;14.90;99.90
17671;DHT22;8954;48.694;8.940;2022-09-01T06:33:37;15.00;99.90
17671;DHT22;8954;48.694;8.940;2022-09-01T06:36:03;15.30;99.90
17671;DHT22;8954;48.694;8.940;2022-09-01T06:38:29;15.60;99.90
17671;DHT22;8954;48.694;8.940;2022-09-01T06:41:02;15.90;99.90
17671;DHT22;8954;48.694;8.940;2022-09-01T06:43:30;16.20;99.90
17671;DHT22;8954;48.694;8.940;2022-09-01T06:46:00;16.50;99.90
17671;DHT22;8954;48.694;8.940;2022-09-01T06:48:26;16.70;99.90
17671;DHT22;8954;48.694;8.940;2022-09-01T06:50:52;16.90;99.90
17671;DHT22;8954;48.694;8.940;2022-09-01T06:55:48;17.40;99.90
17671;DHT22;8954;48.694;8.940;2022-09-01T06:58:14;17.70;99.90
17671;DHT22;8954;48.694;8.940;2022-09-01T07:03:12;18.00;99.90
17671;DHT22;8954;48.694;8.940;2022-09-01T07:08:08;18.50;99.90
17671;DHT22;8954;48.694;8.940;2022-09-01T07:10:40;18.60;99.90
17671;DHT22;8954;48.694;8.940;2022-09-01T07:13:11;18.70;99.90
17671;DHT22;8954;48.694;8.940;2022-09-01T07:15:42;18.80;99.90
17671;DHT22;8954;48.694;8.940;2022-09-01T07:18:08;18.90;99.90
17671;DHT22;8954;48.694;8.940;2022-09-01T07:20:35;18.80;99.90
17671;DHT22;8954;48.694;8.940;2022-09-01T07:23:04;18.60;99.90
17671;DHT22;8954;48.694;8.940;2022-09-01T07:25:31;18.60;99.90
17671;DHT22;8954;48.694;8.940;2022-09-01T07:28:04;18.70;99.90
17671;DHT22;8954;48.694;8.940;2022-09-01T07:30:29;19.00;99.90
17671;DHT22;8954;48.694;8.940;2022-09-01T07:32:56;19.30;99.90
17671;DHT22;8954;48.694;8.940;2022-09-01T07:35:22;19.60;99.90
17671;DHT22;8954;48.694;8.940;2022-09-01T07:37:48;20.10;99.90
17671;DHT22;8954;48.694;8.940;2022-09-01T07:40:17;20.70;99.90
17671;DHT22;8954;48.694;8.940;2022-09-01T07:42:45;20.50;99.90
17671;DHT22;8954;48.694;8.940;2022-09-01T07:45:13;20.50;99.90
17671;DHT22;8954;48.694;8.940;2022-09-01T07:47:42;20.70;99.90
17671;DHT22;8954;48.694;8.940;2022-09-01T07:50:10;20.70;99.90
17671;DHT22;8954;48.694;8.940;2022-09-01T07:52:38;20.70;99.90
17671;DHT22;8954;48.694;8.940;2022-09-01T07:55:12;20.60;99.90
17671;DHT22;8954;48.694;8.940;2022-09-01T07:57:40;20.60;99.90
17671;DHT22;8954;48.694;8.940;2022-09-01T08:00:12;20.70;99.90
17671;DHT22;8954;48.694;8.940;2022-09-01T08:02:38;20.70;99.90
17671;DHT22;8954;48.694;8.940;2022-09-01T08:05:11;20.60;99.90
17671;DHT22;8954;48.694;8.940;2022-09-01T08:07:38;20.50;99.90
17671;DHT22;8954;48.694;8.940;2022-09-01T08:10:05;20.50;99.90
17671;DHT22;8954;48.694;8.940;2022-09-01T08:12:32;20.60;99.90
17671;DHT22;8954;48.694;8.940;2022-09-01T08:15:00;20.60;99.90
17671;DHT22;8954;48.694;8.940;2022-09-01T08:17:26;20.60;99.90
17671;DHT22;8954;48.694;8.940;2022-09-01T08:19:51;20.60;99.90
17671;DHT22;8954;48.694;8.940;2022-09-01T08:22:18;20.70;99.90
17671;DHT22;8954;48.694;8.940;2022-09-01T08:24:48;20.90;99.90
17671;DHT22;8954;48.694;8.940;2022-09-01T08:27:13;21.00;99.90
17671;DHT22;8954;48.694;8.940;2022-09-01T08:29:39;21.10;99.90
17671;DHT22;8954;48.694;8.940;2022-09-01T08:32:05;21.30;99.90
17671;DHT22;8954;48.694;8.940;2022-09-01T08:34:32;21.40;99.90
17671;DHT22;8954;48.694;8.940;2022-09-01T08:36:58;21.70;99.90
17671;DHT22;8954;48.694;8.940;2022-09-01T08:39:24;21.90;99.90
17671;DHT22;8954;48.694;8.940;2022-09-01T08:47:07;23.20;99.90
17671;DHT22;8954;48.694;8.940;2022-09-01T08:49:35;23.40;99.90
17671;DHT22;8954;48.694;8.940;2022-09-01T08:54:59;23.20;99.90
17671;DHT22;8954;48.694;8.940;2022-09-01T08:57:37;23.20;99.90
17671;DHT22;8954;48.694;8.940;2022-09-01T09:00:08;23.30;99.90
17671;DHT22;8954;48.694;8.940;2022-09-01T09:16:44;24.60;99.90
17671;DHT22;8954;48.694;8.940;2022-09-01T09:21:58;24.50;99.90
17671;DHT22;8954;48.694;8.940;2022-09-01T09:27:30;24.60;99.90
17671;DHT22;8954;48.694;8.940;2022-09-01T09:30:02;24.50;99.90
17671;DHT22;8954;48.694;8.940;2022-09-01T09:33:05;24.30;99.90
17671;DHT22;8954;48.694;8.940;2022-09-01T09:35:40;23.80;99.90
17671;DHT22;8954;48.694;8.940;2022-09-01T09:40:55;23.20;99.90
17671;DHT22;8954;48.694;8.940;2022-09-01T09:43:23;23.10;99.90
17671;DHT22;8954;48.694;8.940;2022-09-01T09:45:49;23.30;99.90
17671;DHT22;8954;48.694;8.940;2022-09-01T09:48:30;23.80;99.90
17671;DHT22;8954;48.694;8.940;2022-09-01T09:51:19;24.50;99.90
17671;DHT22;8954;48.694;8.940;2022-09-01T09:53:45;25.00;99.90
17671;DHT22;8954;48.694;8.940;2022-09-01T09:56:16;25.40;99.90
17671;DHT22;8954;48.694;8.940;2022-09-01T09:58:45;25.40;99.90
17671;DHT22;8954;48.694;8.940;2022-09-01T10:03:59;24.50;99.90
17671;DHT22;8954;48.694;8.940;2022-09-01T10:06:38;24.20;99.90
17671;DHT22;8954;48.694;8.940;2022-09-01T10:12:04;24.70;99.90
17671;DHT22;8954;48.694;8.940;2022-09-01T10:14:41;25.40;99.40
17671;DHT22;8954;48.694;8.940;2022-09-01T10:17:13;25.40;97.50
17671;DHT22;8954;48.694;8.940;2022-09-01T10:19:56;25.10;98.60
17671;DHT22;8954;48.694;8.940;2022-09-01T10:22:23;25.20;98.90
17671;DHT22;8954;48.694;8.940;2022-09-01T10:24:50;25.10;97.80
17671;DHT22;8954;48.694;8.940;2022-09-01T10:27:22;25.30;98.50
17671;DHT22;8954;48.694;8.940;2022-09-01T10:30:09;25.80;97.10
17671;DHT22;8954;48.694;8.940;2022-09-01T10:58:28;29.00;90.70
17671;DHT22;8954;48.694;8.940;2022-09-01T11:00:58;29.30;90.30
17671;DHT22;8954;48.694;8.940;2022-09-01T11:03:38;29.30;90.20
17671;DHT22;8954;48.694;8.940;2022-09-01T11:09:16;30.10;86.90
17671;DHT22;8954;48.694;8.940;2022-09-01T11:11:59;31.00;86.60
17671;DHT22;8954;48.694;8.940;2022-09-01T11:14:28;31.20;87.80
17671;DHT22;8954;48.694;8.940;2022-09-01T11:33:31;32.60;80.40
17671;DHT22;8954;48.694;8.940;2022-09-01T11:41:21;36.60;59.30
17671;DHT22;8954;48.694;8.940;2022-09-01T11:43:53;36.90;62.00
17671;DHT22;8954;48.694;8.940;2022-09-01T11:46:25;36.40;61.70
17671;DHT22;8954;48.694;8.940;2022-09-01T11:48:52;35.90;60.60
17671;DHT22;8954;48.694;8.940;2022-09-01T11:51:23;35.60;60.80
17671;DHT22;8954;48.694;8.940;2022-09-01T11:53:58;36.30;58.80
17671;DHT22;8954;48.694;8.940;2022-09-01T11:56:26;35.90;58.80
17671;DHT22;8954;48.694;8.940;2022-09-01T11:58:53;34.50;59.70
17671;DHT22;8954;48.694;8.940;2022-09-01T12:01:36;33.80;60.80
17671;DHT22;8954;48.694;8.940;2022-09-01T12:04:24;33.40;74.20
17671;DHT22;8954;48.694;8.940;2022-09-01T12:07:04;35.10;65.30
17671;DHT22;8954;48.694;8.940;2022-09-01T12:09:51;36.70;55.70
17671;DHT22;8954;48.694;8.940;2022-09-01T12:12:33;36.70;54.80
17671;DHT22;8954;48.694;8.940;2022-09-01T12:15:08;36.10;55.70
17671;DHT22;8954;48.694;8.940;2022-09-01T12:17:35;35.60;57.50
17671;DHT22;8954;48.694;8.940;2022-09-01T12:25:26;31.50;71.70
17671;DHT22;8954;48.694;8.940;2022-09-01T12:27:52;31.10;82.50
17671;DHT22;8954;48.694;8.940;2022-09-01T12:30:19;31.90;81.60
17671;DHT22;8954;48.694;8.940;2022-09-01T12:32:46;34.10;74.70
17671;DHT22;8954;48.694;8.940;2022-09-01T12:35:16;36.50;65.60
17671;DHT22;8954;48.694;8.940;2022-09-01T12:37:47;37.80;55.90
17671;DHT22;8954;48.694;8.940;2022-09-01T12:40:32;39.00;55.00
17671;DHT22;8954;48.694;8.940;2022-09-01T12:42:59;39.50;52.60
17671;DHT22;8954;48.694;8.940;2022-09-01T12:45:45;40.50;54.60
17671;DHT22;8954;48.694;8.940;2022-09-01T12:51:21;42.30;46.20
17671;DHT22;8954;48.694;8.940;2022-09-01T12:53:53;41.90;47.00
17671;DHT22;8954;48.694;8.940;2022-09-01T12:56:27;41.40;47.10
17671;DHT22;8954;48.694;8.940;2022-09-01T12:59:08;38.70;49.00
17671;DHT22;8954;48.694;8.940;2022-09-01T13:01:36;36.20;53.60
17671;DHT22;8954;48.694;8.940;2022-09-01T13:06:37;37.70;51.80
17671;DHT22;8954;48.694;8.940;2022-09-01T13:09:03;39.10;50.30
17671;DHT22;8954;48.694;8.940;2022-09-01T13:11:29;39.90;48.90
17671;DHT22;8954;48.694;8.940;2022-09-01T13:13:55;40.70;48.40
17671;DHT22;8954;48.694;8.940;2022-09-01T13:16:22;41.60;47.10
17671;DHT22;8954;48.694;8.940;2022-09-01T13:18:48;42.00;46.50
17671;DHT22;8954;48.694;8.940;2022-09-01T13:21:36;42.10;46.60
17671;DHT22;8954;48.694;8.940;2022-09-01T13:24:04;42.20;46.30
17671;DHT22;8954;48.694;8.940;2022-09-01T13:26:31;42.20;46.40
17671;DHT22;8954;48.694;8.940;2022-09-01T13:28:58;41.30;47.10
17671;DHT22;8954;48.694;8.940;2022-09-01T13:31:24;38.50;49.40
17671;DHT22;8954;48.694;8.940;2022-09-01T13:33:50;36.10;52.60
17671;DHT22;8954;48.694;8.940;2022-09-01T13:36:16;34.70;55.40
17671;DHT22;8954;48.694;8.940;2022-09-01T13:38:42;36.00;54.50
17671;DHT22;8954;48.694;8.940;2022-09-01T13:41:07;37.60;52.80
17671;DHT22;8954;48.694;8.940;2022-09-01T13:43:35;37.90;51.00
17671;DHT22;8954;48.694;8.940;2022-09-01T13:46:02;37.20;52.40
17671;DHT22;8954;48.694;8.940;2022-09-01T13:48:28;38.20;51.50
17671;DHT22;8954;48.694;8.940;2022-09-01T13:50:54;39.60;50.70
17671;DHT22;8954;48.694;8.940;2022-09-01T13:53:22;40.00;48.50
17671;DHT22;8954;48.694;8.940;2022-09-01T13:55:48;37.10;51.10
17671;DHT22;8954;48.694;8.940;2022-09-01T13:58:14;34.50;54.20
17671;DHT22;8954;48.694;8.940;2022-09-01T14:00:43;32.50;56.80
17671;DHT22;8954;48.694;8.940;2022-09-01T14:03:16;30.90;59.30
17671;DHT22;8954;48.694;8.940;2022-09-01T14:05:44;29.50;62.10
17671;DHT22;8954;48.694;8.940;2022-09-01T14:08:11;28.50;65.20
17671;DHT22;8954;48.694;8.940;2022-09-01T14:10:41;27.70;66.90
17671;DHT22;8954;48.694;8.940;2022-09-01T14:13:08;27.40;69.10
17671;DHT22;8954;48.694;8.940;2022-09-01T14:15:35;27.40;69.90
17671;DHT22;8954;48.694;8.940;2022-09-01T14:18:02;28.80;68.40
17671;DHT22;8954;48.694;8.940;2022-09-01T14:20:35;31.80;63.20
17671;DHT22;8954;48.694;8.940;2022-09-01T14:23:06;33.90;58.50
17671;DHT22;8954;48.694;8.940;2022-09-01T14:25:33;35.90;56.30
17671;DHT22;8954;48.694;8.940;2022-09-01T14:27:59;37.20;53.30
17671;DHT22;8954;48.694;8.940;2022-09-01T14:30:28;37.50;53.10
17671;DHT22;8954;48.694;8.940;2022-09-01T14:32:55;38.30;52.20
17671;DHT22;8954;48.694;8.940;2022-09-01T14:35:24;38.30;52.10
17671;DHT22;8954;48.694;8.940;2022-09-01T14:37:51;38.80;51.40
17671;DHT22;8954;48.694;8.940;2022-09-01T14:40:19;39.10;50.40
17671;DHT22;8954;48.694;8.940;2022-09-01T14:42:48;39.20;50.40
17671;DHT22;8954;48.694;8.940;2022-09-01T14:45:22;39.70;50.10
17671;DHT22;8954;48.694;8.940;2022-09-01T14:47:52;40.00;50.20
17671;DHT22;8954;48.694;8.940;2022-09-01T14:50:19;40.40;49.20
17671;DHT22;8954;48.694;8.940;2022-09-01T14:52:46;40.30;49.20
17671;DHT22;8954;48.694;8.940;2022-09-01T14:55:13;40.30;49.20
17671;DHT22;8954;48.694;8.940;2022-09-01T14:57:45;39.60;49.90
17671;DHT22;8954;48.694;8.940;2022-09-01T15:00:12;37.10;51.90
17671;DHT22;8954;48.694;8.940;2022-09-01T15:02:39;35.80;54.70
17671;DHT22;8954;48.694;8.940;2022-09-01T15:05:07;36.60;54.20
17671;DHT22;8954;48.694;8.940;2022-09-01T15:07:34;37.40;52.90
17671;DHT22;8954;48.694;8.940;2022-09-01T15:10:09;38.10;52.10
17671;DHT22;8954;48.694;8.940;2022-09-01T15:12:41;37.30;52.00
17671;DHT22;8954;48.694;8.940;2022-09-01T15:15:11;36.80;52.60
17671;DHT22;8954;48.694;8.940;2022-09-01T15:17:37;35.30;54.00
17671;DHT22;8954;48.694;8.940;2022-09-01T15:20:04;32.60;57.40
17671;DHT22;8954;48.694;8.940;2022-09-01T15:22:49;30.30;61.00
17671;DHT22;8954;48.694;8.940;2022-09-01T15:27:43;27.40;67.20
17671;DHT22;8954;48.694;8.940;2022-09-01T15:30:11;26.70;69.00
17671;DHT22;8954;48.694;8.940;2022-09-01T15:32:43;26.10;70.80
17671;DHT22;8954;48.694;8.940;2022-09-01T15:35:10;25.50;71.90
17671;DHT22;8954;48.694;8.940;2022-09-01T15:37:37;25.20;76.60
17671;DHT22;8954;48.694;8.940;2022-09-01T15:40:04;25.00;79.60
17671;DHT22;8954;48.694;8.940;2022-09-01T15:42:33;26.40;76.80
17671;DHT22;8954;48.694;8.940;2022-09-01T15:45:01;27.30;72.40
17671;DHT22;8954;48.694;8.940;2022-09-01T15:47:29;26.60;73.20
17671;DHT22;8954;48.694;8.940;2022-09-01T15:49:57;26.20;74.50
17671;DHT22;8954;48.694;8.940;2022-09-01T15:52:23;25.50;75.80
17671;DHT22;8954;48.694;8.940;2022-09-01T15:54:49;25.00;78.10
17671;DHT22;8954;48.694;8.940;2022-09-01T15:57:15;24.80;79.90
17671;DHT22;8954;48.694;8.940;2022-09-01T15:59:42;24.20;79.90
17671;DHT22;8954;48.694;8.940;2022-09-01T16:02:10;24.00;80.70
17671;DHT22;8954;48.694;8.940;2022-09-01T16:04:36;23.70;81.00
17671;DHT22;8954;48.694;8.940;2022-09-01T16:07:04;23.50;85.80
17671;DHT22;8954;48.694;8.940;2022-09-01T16:09:30;23.40;89.00
17671;DHT22;8954;48.694;8.940;2022-09-01T16:11:57;23.20;93.70
17671;DHT22;8954;48.694;8.940;2022-09-01T16:14:22;23.10;93.50
17671;DHT22;8954;48.694;8.940;2022-09-01T16:19:51;22.90;93.30
17671;DHT22;8954;48.694;8.940;2022-09-01T16:24:59;22.50;95.20
17671;DHT22;8954;48.694;8.940;2022-09-01T16:27:40;22.50;95.70
17671;DHT22;8954;48.694;8.940;2022-09-01T16:30:19;22.40;95.90
17671;DHT22;8954;48.694;8.940;2022-09-01T16:32:48;22.30;95.70
17671;DHT22;8954;48.694;8.940;2022-09-01T16:35:16;22.20;96.20
17671;DHT22;8954;48.694;8.940;2022-09-01T16:38:10;22.10;96.60
17671;DHT22;8954;48.694;8.940;2022-09-01T16:40:49;22.10;96.90
17671;DHT22;8954;48.694;8.940;2022-09-01T16:43:42;22.10;97.20
17671;DHT22;8954;48.694;8.940;2022-09-01T16:46:32;22.10;97.60
17671;DHT22;8954;48.694;8.940;2022-09-01T16:49:31;22.00;97.50
17671;DHT22;8954;48.694;8.940;2022-09-01T16:55:22;21.90;98.50
17671;DHT22;8954;48.694;8.940;2022-09-01T17:01:02;21.60;99.20
17671;DHT22;8954;48.694;8.940;2022-09-01T17:03:34;21.60;99.90
17671;DHT22;8954;48.694;8.940;2022-09-01T17:06:02;21.50;99.70
17671;DHT22;8954;48.694;8.940;2022-09-01T17:08:47;21.50;98.60
17671;DHT22;8954;48.694;8.940;2022-09-01T17:11:26;21.40;92.80
17671;DHT22;8954;48.694;8.940;2022-09-01T17:13:56;21.30;93.10
17671;DHT22;8954;48.694;8.940;2022-09-01T17:16:33;21.40;93.30
17671;DHT22;8954;48.694;8.940;2022-09-01T17:19:08;21.30;93.30
17671;DHT22;8954;48.694;8.940;2022-09-01T17:24:36;23.10;91.20
17671;DHT22;8954;48.694;8.940;2022-09-01T17:29:46;22.10;92.30
17671;DHT22;8954;48.694;8.940;2022-09-01T18:00:27;19.50;99.80
17671;DHT22;8954;48.694;8.940;2022-09-01T18:05:42;19.30;99.90
17671;DHT22;8954;48.694;8.940;2022-09-01T18:11:01;19.20;99.90
17671;DHT22;8954;48.694;8.940;2022-09-01T18:15:55;19.00;99.90
17671;DHT22;8954;48.694;8.940;2022-09-01T18:18:40;18.90;99.90
17671;DHT22;8954;48.694;8.940;2022-09-01T18:23:45;18.90;99.90
17671;DHT22;8954;48.694;8.940;2022-09-01T18:26:33;18.90;99.90
17671;DHT22;8954;48.694;8.940;2022-09-01T18:29:04;18.80;99.90
17671;DHT22;8954;48.694;8.940;2022-09-01T18:34:27;18.70;99.90
17671;DHT22;8954;48.694;8.940;2022-09-01T18:50:55;18.30;99.90
17671;DHT22;8954;48.694;8.940;2022-09-01T19:01:58;18.00;99.90
17671;DHT22;8954;48.694;8.940;2022-09-01T19:04:31;17.90;99.90
17671;DHT22;8954;48.694;8.940;2022-09-01T19:07:32;17.80;99.90
17671;DHT22;8954;48.694;8.940;2022-09-01T19:10:18;17.80;99.90
17671;DHT22;8954;48.694;8.940;2022-09-01T19:23:11;17.10;99.90
17671;DHT22;8954;48.694;8.940;2022-09-01T19:25:39;17.10;99.90
17671;DHT22;8954;48.694;8.940;2022-09-01T19:28:31;17.00;99.90
17671;DHT22;8954;48.694;8.940;2022-09-01T19:38:51;16.50;99.90
17671;DHT22;8954;48.694;8.940;2022-09-01T19:41:43;16.40;99.90
17671;DHT22;8954;48.694;8.940;2022-09-01T19:44:21;16.30;99.90
17671;DHT22;8954;48.694;8.940;2022-09-01T19:46:55;16.20;99.90
17671;DHT22;8954;48.694;8.940;2022-09-01T20:01:03;15.80;99.90
17671;DHT22;8954;48.694;8.940;2022-09-01T20:03:48;15.70;99.90
17671;DHT22;8954;48.694;8.940;2022-09-01T20:09:01;15.50;99.90
17671;DHT22;8954;48.694;8.940;2022-09-01T20:14:24;15.30;99.90
17671;DHT22;8954;48.694;8.940;2022-09-01T20:16:56;15.20;99.90
17671;DHT22;8954;48.694;8.940;2022-09-01T20:20:22;15.10;99.90
17671;DHT22;8954;48.694;8.940;2022-09-01T20:25:24;14.90;99.90
17671;DHT22;8954;48.694;8.940;2022-09-01T20:28:06;14.90;99.90
17671;DHT22;8954;48.694;8.940;2022-09-01T20:30:42;14.90;99.90
17671;DHT22;8954;48.694;8.940;2022-09-01T20:36:03;14.70;99.90
17671;DHT22;8954;48.694;8.940;2022-09-01T20:41:35;14.60;99.90
17671;DHT22;8954;48.694;8.940;2022-09-01T20:44:06;14.50;99.90
17671;DHT22;8954;48.694;8.940;2022-09-01T20:46:50;14.50;99.90